• Join FlightAware (Why Join?)
  • Login
  • US Flag GB Flag 
21:43 EST


 

Airport Tracker/Info


-or-


 

Live Flight TrackerFlight Track Log ✈ SWA1725 ✈ 12-Apr-2013 ✈ KSMF - KMDW

Flight Track Log - Related Links

Times and Time Zones

All times are in EDT time to prevent confusion due to time zone crossing. See the SWA1725 flight status page for this flight to view local times or setup timezone preferences in your user account.

Time Position Orientation Groundspeed Altitude Reporting Facility
EDT Latitude Longitude Course Direction KTS MPH feet Rate Location/Type
17:14 38.6500 -121.5833 72° East 181 208 1,600  Level Northern Cal TRACON
17:15 38.6333 -121.5167 108° East 253 291 3,400 2,520 Climbing Northern Cal TRACON
17:16 38.6167 -121.4167 102° East 281 323 6,700 3,180 Climbing Northern Cal TRACON
17:17 38.6119 -121.3553 96° East 285 328 8,600 2,940 Climbing Oakland Center
17:18 38.6125 -121.2500 90° East 300 345 11,600 3,000 Climbing Oakland Center
17:19 38.6128 -121.1378 90° East 316 364 14,800 2,580 Climbing Oakland Center
17:20 38.9179 -120.6833 72° East  Level Estimated
17:20 38.6119 -121.0233 90° East 317 365 17,000  Level Oakland Center
17:21 38.6114 -120.8836 90° East 382 440 18,400 1,620 Climbing Oakland Center
17:22 38.6114 -120.7314 90° East 421 484 20,400 2,160 Climbing Oakland Center
17:23 38.6108 -120.5758 90° East 435 501 22,900 2,280 Climbing Oakland Center
17:24 38.6097 -120.3839 90° East 449 517 25,100 1,920 Climbing Oakland Center
17:25 38.6083 -120.2189 91° East 463 533 26,900 1,620 Climbing Oakland Center
17:26 38.6058 -120.0522 91° East 471 542 28,500 1,560 Climbing Oakland Center
17:27 38.6036 -119.8825 91° East 478 550 30,200 1,800 Climbing Oakland Center
17:28 38.6019 -119.7044 91° East 471 542 32,200 1,620 Climbing Oakland Center
17:29 38.5989 -119.5397 91° East 468 539 33,600 1,200 Climbing Oakland Center
17:30 38.5964 -119.3736 91° East 468 539 34,700 1,080 Climbing Oakland Center
17:31 38.5933 -119.2072 91° East 471 542 35,900 1,080 Climbing Oakland Center
17:32 38.5892 -119.0408 92° East 473 544 37,000 480 Climbing Oakland Center
17:33 38.5853 -118.8761 92° East 468 539 37,000  Level Oakland Center
17:34 38.5825 -118.6778 91° East 467 537 37,000  Level Oakland Center
17:35 38.5783 -118.5114 92° East 470 541 37,000  Level Oakland Center
17:36 38.5739 -118.3453 92° East 471 542 37,000  Level Oakland Center
17:37 38.5697 -118.1792 92° East 470 541 37,000  Level Oakland Center
17:38 38.5700 -118.0006 90° East 467 537 37,000  Level Oakland Center
17:39 38.5950 -117.8458 78° East 444 511 37,000  Level Oakland Center
17:40 38.6194 -117.6892 79° East 446 513 37,000  Level Oakland Center
17:41 38.6378 -117.5650 79° East 443 510 37,000  Level Salt Lake Center
17:41 38.6428 -117.5347 78° East 441 507 37,000  Level Oakland Center
17:43 38.6667 -117.3794 79° East 441 507 37,000  Level Oakland Center
17:43 38.6853 -117.2558 79° East 440 506 37,000  Level Salt Lake Center
17:44 38.7078 -117.1011 79° East 439 505 37,000  Level Salt Lake Center
17:45 38.7319 -116.9461 79° East 442 509 37,000  Level Salt Lake Center
17:46 38.7547 -116.7908 79° East 442 509 37,000  Level Salt Lake Center
17:47 38.7817 -116.6039 79° East 443 510 37,000  Level Salt Lake Center
17:48 38.8036 -116.4478 80° East 445 512 37,000  Level Salt Lake Center
17:49 38.8269 -116.2917 79° East 445 512 37,000  Level Salt Lake Center
17:51 38.8489 -116.1356 80° East 444 511 37,000  Level Salt Lake Center
17:52 38.8703 -115.9781 80° East 447 514 37,000  Level Salt Lake Center
17:53 38.8917 -115.8217 80° East 444 511 37,000  Level Salt Lake Center
17:54 38.9133 -115.6639 80° East 447 514 37,000  Level Salt Lake Center
17:55 38.9347 -115.5083 80° East 443 510 37,000  Level Salt Lake Center
17:56 38.9583 -115.3375 80° East 447 514 37,000  Level Salt Lake Center
17:57 38.9792 -115.1814 80° East 445 512 37,000  Level Salt Lake Center
17:58 39.0000 -115.0253 80° East 443 510 37,000  Level Salt Lake Center
17:59 39.0253 -114.8350 80° East 449 517 37,000  Level Salt Lake Center
18:00 39.0458 -114.6778 80° East 446 513 37,000  Level Salt Lake Center
18:01 39.0656 -114.5186 81° East 451 519 37,000  Level Salt Lake Center
18:02 39.0861 -114.3606 80° East 448 516 37,000  Level Salt Lake Center
18:03 39.1053 -114.2036 81° East 445 512 37,000  Level Salt Lake Center
18:04 39.1250 -114.0461 81° East 445 512 37,000  Level Salt Lake Center
18:05 39.1447 -113.8861 81° East 451 519 37,000  Level Salt Lake Center
18:06 39.1631 -113.7283 81° East 448 516 37,000  Level Salt Lake Center
18:07 39.1867 -113.5356 81° East 453 521 37,000  Level Salt Lake Center
18:08 39.2044 -113.3753 82° East 451 519 37,000  Level Salt Lake Center
18:09 39.2233 -113.2139 81° East 454 522 37,000  Level Salt Lake Center
18:10 39.2419 -113.0508 82° East 458 527 37,000  Level Salt Lake Center
18:11 39.2594 -112.8889 82° East 456 525 37,000  Level Salt Lake Center
18:12 39.2783 -112.7242 82° East 460 529 37,000  Level Salt Lake Center
18:13 39.2975 -112.5542 82° East 460 529 37,000  Level Salt Lake Center
18:14 39.3236 -112.3914 78° East 464 534 37,000  Level Salt Lake Center
18:15 39.3547 -112.2314 76° East 462 532 37,000  Level Salt Lake Center
18:16 39.3911 -112.0383 76° East 463 533 37,000  Level Salt Lake Center
18:17 39.4203 -111.8758 77° East 465 535 37,000  Level Salt Lake Center
18:18 39.4492 -111.7158 77° East 463 533 37,000  Level Salt Lake Center
18:19 39.4783 -111.5556 77° East 460 529 37,000  Level Salt Lake Center
18:20 39.5078 -111.3928 77° East 464 534 37,000  Level Salt Lake Center
18:21 39.5394 -111.2094 77° East 462 532 37,000  Level Salt Lake Center
18:22 39.5675 -111.0556 77° East 460 529 37,000  Level Salt Lake Center
18:23 39.6003 -110.8753 77° East 459 528 37,000  Level Salt Lake Center
18:24 39.6253 -110.7208 78° East 458 527 37,000  Level Salt Lake Center
18:26 39.6553 -110.5425 78° East 456 525 37,000  Level Salt Lake Center
18:27 39.6817 -110.3897 77° East 455 524 37,000  Level Salt Lake Center
18:28 39.7075 -110.2361 78° East 453 521 37,000  Level Salt Lake Center
18:29 39.7369 -110.0558 78° East 457 526 37,000  Level Salt Lake Center
18:30 39.7628 -109.8989 78° East 463 533 37,000  Level Salt Lake Center
18:31 39.7922 -109.7161 78° East 463 533 37,000  Level Salt Lake Center
18:32 39.8172 -109.5569 78° East 468 539 37,000  Level Salt Lake Center
18:33 39.8472 -109.3731 78° East 465 535 37,000  Level Salt Lake Center
18:34 39.8756 -109.1847 79° East 467 537 37,000  Level Denver Center
18:35 39.8975 -109.0528 78° East 470 541 37,000  Level Salt Lake Center
18:36 39.9269 -108.8631 79° East 473 544 37,000  Level Salt Lake Center
18:37 39.9519 -108.6994 79° East 476 548 37,000  Level Salt Lake Center
18:38 39.9775 -108.5361 78° East 477 549 37,000  Level Salt Lake Center
18:39 40.0058 -108.3436 79° East 481 554 37,000  Level Salt Lake Center
18:40 40.0308 -108.1767 79° East 487 560 37,000  Level Salt Lake Center
18:41 40.0592 -107.9794 79° East 494 568 37,000  Level Salt Lake Center
18:42 40.0997 -107.7872 75° East 488 562 37,000  Level Denver Center
18:43 40.1369 -107.6261 73° East 484 557 37,000  Level Denver Center
18:44 40.1794 -107.4394 73° East 481 554 37,000  Level Denver Center
18:45 40.2158 -107.2758 74° East 487 560 37,000  Level Denver Center
18:46 40.2586 -107.0864 73° East 488 562 37,000  Level Denver Center
18:47 40.2953 -106.9256 73° East 483 556 37,000  Level Denver Center
18:48 40.3381 -106.7386 73° East 483 556 37,000  Level Denver Center
18:49 40.3744 -106.5700 74° East 480 552 37,000  Level Denver Center
18:50 40.4139 -106.3919 74° East 475 547 37,000  Level Denver Center
18:51 40.4481 -106.2319 74° East 476 548 37,000  Level Denver Center
18:52 40.4856 -106.0572 74° East 479 551 37,000  Level Denver Center
18:53 40.5228 -105.8836 74° East 486 559 37,000  Level Denver Center
18:55 40.5589 -105.7097 75° East 489 563 37,000  Level Denver Center
18:56 40.5958 -105.5319 75° East 496 571 37,000  Level Denver Center
18:57 40.6331 -105.3519 75° East 504 580 37,000  Level Denver Center
18:58 40.6767 -105.1433 75° East 502 578 37,000  Level Denver Center
18:59 40.7131 -104.9625 75° East 504 580 37,000  Level Denver Center
19:00 40.7497 -104.7794 75° East 509 586 37,000  Level Denver Center
19:01 40.7864 -104.5994 75° East 504 580 37,000  Level Denver Center
19:02 40.8225 -104.4167 75° East 510 587 37,000  Level Denver Center
19:03 40.8586 -104.2325 75° East 512 589 37,000  Level Denver Center
19:04 40.8939 -104.0486 76° East 510 587 37,000  Level Denver Center
19:05 40.9286 -103.8678 76° East 505 581 37,000  Level Denver Center
19:06 40.9642 -103.6864 75° East 504 580 37,000  Level Denver Center
19:07 40.9992 -103.4992 76° East 495 570 37,000  Level Denver Center
19:08 41.0383 -103.3011 75° East 498 573 37,000  Level Denver Center
19:09 41.0736 -103.1058 76° East 491 565 37,000 -480 Level Denver Center
19:10 41.1028 -102.9186 78° East 493 567 36,000 -1,020 Descending Denver Center
19:11 41.1142 -102.7089 86° East 512 589 35,000 -540 Descending Denver Center
19:12 41.1242 -102.5267 86° East 518 596 35,000  Level Denver Center
19:13 41.1364 -102.3150 86° East 517 595 35,000  Level Denver Center
19:14 41.1489 -102.1308 85° East 522 601 35,000  Level Denver Center
19:15 41.1597 -101.9194 86° East 515 593 35,000  Level Denver Center
19:16 41.1692 -101.7364 86° East 517 595 35,000  Level Denver Center
19:17 41.1803 -101.5211 86° East 522 601 35,000  Level Denver Center
19:18 41.1881 -101.3381 87° East 520 598 35,000  Level Denver Center
19:19 41.1967 -101.1539 86° East 521 600 35,000  Level Denver Center
19:21 41.2067 -100.9411 86° East 515 593 35,000  Level Denver Center
19:22 41.2147 -100.7597 87° East 511 588 35,000  Level Denver Center
19:23 41.2247 -100.5475 86° East 511 588 35,000  Level Denver Center
19:24 41.2306 -100.3661 87° East 512 589 35,000  Level Denver Center
19:25 41.2400 -100.1550 87° East 511 588 35,000  Level Denver Center
19:26 41.2472 -99.9747 87° East 511 588 35,000  Level Denver Center
19:27 41.2528 -99.7931 88° East 511 588 35,000  Level Denver Center
19:28 41.2603 -99.5811 87° East 514 592 35,000  Level Denver Center
19:29 41.2650 -99.3981 88° East 514 592 35,000  Level Denver Center
19:30 41.2717 -99.2064 87° East 517 595 35,000  Level Denver Center
19:31 41.2775 -99.0039 88° East 517 595 35,000  Level Denver Center
19:32 41.2819 -98.8114 88° East 515 593 35,000  Level Minneapolis Center
19:33 41.2886 -98.6206 87° East 516 594 35,000  Level Minneapolis Center
19:34 41.2936 -98.3919 88° East 517 595 35,000  Level Minneapolis Center
19:35 41.2986 -98.1967 88° East 522 601 35,000  Level Minneapolis Center
19:36 41.3019 -98.0050 89° East 521 600 35,000  Level Minneapolis Center
19:37 41.3050 -97.8125 89° East 519 597 35,000  Level Minneapolis Center
19:38 41.3086 -97.6222 88° East 517 595 35,000  Level Minneapolis Center
19:39 41.3117 -97.4331 89° East 513 590 35,000  Level Minneapolis Center
19:40 41.3139 -97.2475 89° East 512 589 35,000  Level Minneapolis Center
19:41 41.3181 -97.0219 89° East 509 586 35,000  Level Minneapolis Center
19:42 41.3192 -96.8342 89° East 509 586 35,000  Level Minneapolis Center
19:43 41.3203 -96.6436 89° East 513 590 35,000  Level Minneapolis Center
19:44 41.3228 -96.4558 89° East 511 588 35,000  Level Minneapolis Center
19:45 41.3233 -96.2606 90° East 514 592 35,000  Level Minneapolis Center
19:46 41.3233 -96.0700 90° East 515 593 35,000  Level Minneapolis Center
19:47 41.3250 -95.8786 89° East 516 594 35,000  Level Minneapolis Center
19:49 41.3170 -95.6888 90° East  Level FlightAware Approximate
19:49 41.3228 -95.4792 90° East 523 602 35,000  Level Minneapolis Center
19:50 41.3219 -95.2861 90° East 523 602 35,000  Level Minneapolis Center
19:51 41.3200 -95.0553 91° East 521 600 35,000  Level Minneapolis Center
19:53 41.3194 -94.8642 90° East 518 596 35,000  Level Minneapolis Center
19:54 41.3172 -94.6728 91° East 517 595 35,000  Level Minneapolis Center
19:55 41.3156 -94.4814 91° East 518 596 35,000  Level Minneapolis Center
19:56 41.3119 -94.2900 91° East 518 596 35,000  Level Minneapolis Center
19:57 41.3094 -94.0881 91° East 518 596 35,000  Level Minneapolis Center
19:58 41.3056 -93.8975 91° East 518 596 35,000  Level Minneapolis Center
19:59 41.3050 -93.7075 90° East 517 595 35,000  Level Minneapolis Center
20:00 41.3011 -93.5172 91° East 516 594 35,000  Level Minneapolis Center
20:01 41.2978 -93.3253 91° East 519 597 35,000 -300 Level Minneapolis Center
20:02 41.2931 -93.0964 91° East 519 597 34,400 -780 Descending Minneapolis Center
20:03 41.2881 -92.9069 92° East 516 594 33,500 -960 Descending Minneapolis Center
20:04 41.2844 -92.7161 91° East 517 595 32,500 -1,020 Descending Minneapolis Center
20:05 41.2794 -92.5236 92° East 521 600 31,400 -780 Descending Minneapolis Center
20:06 41.2736 -92.3339 92° East 519 597 31,000 -240 Descending Minneapolis Center
20:07 41.2686 -92.1408 92° East 520 598 31,000  Level Minneapolis Center
20:08 41.2600 -91.9058 93° East 527 606 31,000  Level Minneapolis Center
20:09 41.2553 -91.7506 92° East 530 610 31,000  Level Minneapolis Center
20:10 41.2456 -91.4931 93° East 533 613 31,000  Level Chicago Center
20:11 41.2381 -91.2967 93° East 534 615 31,000 -180 Level Chicago Center
20:12 41.2308 -91.1006 93° East 534 615 30,700 -1,800 Descending Chicago Center
20:13 41.2236 -90.9053 93° East 529 609 27,300 -3,180 Descending Chicago Center
20:14 41.2150 -90.7114 93° East 526 605 24,200 -1,620 Descending Chicago Center
20:15 41.2064 -90.5225 93° East 515 593 24,000 -540 Descending Chicago Center
20:16 41.1975 -90.3294 93° East 520 598 23,200 -540 Descending Chicago Center
20:17 41.1853 -90.1050 94° East 507 583 23,000 -1,260 Descending Chicago Center
20:18 41.1781 -89.9217 93° East 494 568 20,700 -2,520 Descending Chicago Center
20:19 41.1683 -89.7458 94° East 477 549 17,800 -2,700 Descending Chicago Center
20:20 41.1611 -89.5753 93° East 465 535 15,200 -2,040 Descending Chicago Center
20:21 41.1772 -89.4139 82° East 435 501 13,600 -1,320 Descending Chicago Center
20:22 41.2236 -89.2711 67° East 420 483 12,500 -1,200 Descending Chicago Center
20:24 41.2758 -89.1172 66° East 417 480 11,200 -1,200 Descending Chicago Center
20:25 41.3194 -88.9878 66° East 388 447 10,100 -840 Descending Chicago Center
20:26 41.3583 -88.8767 65° Northeast 340 391 9,500 -840 Descending Chicago Center
20:27 41.3947 -88.7719 65° Northeast 317 365 8,400 -1,140 Descending Chicago Center
20:28 41.4294 -88.6447 70° East 307 353 7,200 -1,080 Descending Chicago Center
20:29 41.4475 -88.5350 78° East 305 351 6,200 -600 Descending Chicago Center
20:30 41.4681 -88.4311 75° East 295 339 6,000 -120 Descending Chicago Center
20:31 41.4869 -88.3247 77° East 294 338 6,000 -420 Level Chicago Center
20:32 41.5056 -88.2192 77° East 294 338 5,200 -780 Descending Chicago Center
20:33 41.5247 -88.1136 76° East 291 335 4,500 -420 Descending Chicago Center
20:34 41.5444 -88.0092 76° East 288 331 4,400 -600 Descending Chicago Center
20:35 41.5628 -87.9050 77° East 286 329 3,300 -720 Descending Chicago Center
20:36 41.5650 -87.7808 89° East 283 326 3,000 -180 Descending Chicago Center
20:37 41.5669 -87.6889 88° East 266 306 3,000  Level Chicago Center
20:38 41.5692 -87.6097 88° East 239 275 3,000  Level Chicago Center
20:39 41.5928 -87.5461 64° Northeast 217 250 3,000  Level Chicago Center
20:40 41.6369 -87.5528 354° North 189 217 3,000  Level Chicago Center
20:41 41.6708 -87.5903 320° Northwest 170 196 3,000 -120 Level Chicago Center
20:42 41.7067 -87.6414 313° West 162 186 2,800 -420 Descending Chicago Center
20:43 41.7167 -87.6667 298° West 153 176 2,400 -780 Descending Chicago TRACON
20:44 41.7500 -87.7000 323° Northwest 132 152 1,700 -720 Descending Chicago TRACON
20:45 41.7667 -87.7333 304° West 124 143 1,000 -720 Descending Chicago TRACON